createdAt,value
2016-09-02T00:00:44.467Z,22.6
2016-09-02T00:01:55.322Z,22.63
2016-09-02T00:03:07.604Z,22.55
2016-09-02T00:04:19.155Z,22.52
2016-09-02T00:05:31.427Z,22.54
2016-09-02T00:06:42.971Z,22.48
2016-09-02T00:07:55.233Z,22.42
2016-09-02T00:09:07.519Z,22.3
2016-09-02T00:10:19.794Z,22.24
2016-09-02T00:11:31.376Z,22.18
2016-09-02T00:12:43.633Z,22.26
2016-09-02T00:13:55.916Z,22.24
2016-09-02T00:15:08.169Z,22.18
2016-09-02T00:16:20.442Z,22.22
2016-09-02T00:17:32.690Z,22.2
2016-09-02T00:18:44.263Z,22.15
2016-09-02T00:19:55.830Z,22.14
2016-09-02T00:21:07.416Z,22.14
2016-09-02T00:22:18.998Z,22.14
2016-09-02T00:23:30.581Z,22.11
2016-09-02T00:24:42.133Z,22.07
2016-09-02T00:25:54.400Z,21.97
2016-09-02T00:27:05.961Z,21.97
2016-09-02T00:28:16.123Z,21.94
2016-09-02T00:29:28.389Z,21.94
2016-09-02T00:30:39.940Z,21.94
2016-09-02T00:31:52.212Z,21.86
2016-09-02T00:33:02.569Z,21.92
2016-09-02T00:34:14.835Z,21.78
2016-09-02T00:35:26.397Z,21.83
2016-09-02T00:36:38.669Z,21.77
2016-09-02T00:37:50.941Z,21.7
2016-09-02T00:39:02.483Z,21.71
2016-09-02T00:40:14.144Z,21.62
2016-09-02T00:41:26.411Z,21.67
2016-09-02T00:42:37.974Z,21.52
2016-09-02T00:43:49.550Z,21.58
2016-09-02T00:45:01.811Z,21.55
2016-09-02T00:46:14.152Z,21.58
2016-09-02T00:47:25.726Z,21.58
2016-09-02T00:48:36.575Z,21.58
2016-09-02T00:49:48.148Z,21.55
2016-09-02T00:51:00.431Z,21.45
2016-09-02T00:52:10.592Z,21.55
2016-09-02T00:53:22.161Z,21.56
2016-09-02T00:54:33.720Z,21.53
2016-09-02T00:55:45.977Z,21.56
2016-09-02T00:56:56.130Z,21.49
2016-09-02T00:58:07.001Z,21.51
2016-09-02T00:59:17.856Z,21.45
2016-09-02T01:00:29.944Z,21.45
2016-09-02T01:01:41.513Z,21.43
2016-09-02T01:02:53.063Z,21.37
2016-09-02T01:04:04.629Z,21.4
2016-09-02T01:05:16.892Z,21.41
2016-09-02T01:06:28.468Z,21.45
2016-09-02T01:07:39.324Z,21.41
2016-09-02T01:08:51.571Z,21.34
2016-09-02T01:10:03.129Z,21.31
2016-09-02T01:11:14.396Z,21.3
2016-09-02T01:12:24.549Z,21.36
2016-09-02T01:13:36.823Z,21.33
2016-09-02T01:14:48.371Z,21.31
2016-09-02T01:16:00.637Z,21.37
2016-09-02T01:17:12.917Z,21.36
2016-09-02T01:18:24.481Z,21.28
2016-09-02T01:19:36.732Z,21.36
2016-09-02T01:20:48.288Z,21.31
2016-09-02T01:21:59.148Z,21.36
2016-09-02T01:23:11.416Z,21.37
2016-09-02T01:24:23.668Z,21.45
2016-09-02T01:25:34.516Z,21.43
2016-09-02T01:26:46.080Z,21.48
2016-09-02T01:27:58.336Z,21.4
2016-09-02T01:29:09.898Z,21.48
2016-09-02T01:30:21.453Z,21.58
2016-09-02T01:31:33.020Z,21.52
2016-09-02T01:32:44.584Z,21.53
2016-09-02T01:33:56.837Z,21.59
2016-09-02T01:35:08.482Z,21.62
2016-09-02T01:36:20.058Z,21.62
2016-09-02T01:37:31.610Z,21.61
2016-09-02T01:38:43.876Z,21.61
2016-09-02T01:39:56.147Z,21.74
2016-09-02T01:41:08.410Z,21.76
2016-09-02T01:42:20.678Z,21.71
2016-09-02T01:43:32.983Z,21.77
2016-09-02T01:44:45.245Z,21.8
2016-09-02T01:45:57.507Z,21.7
2016-09-02T01:47:09.770Z,21.66
2016-09-02T01:48:22.069Z,21.64
2016-09-02T01:49:32.956Z,21.55
2016-09-02T01:50:43.818Z,21.59
2016-09-02T01:51:54.666Z,21.56
2016-09-02T01:53:06.938Z,21.55
2016-09-02T01:54:19.201Z,21.55
2016-09-02T01:55:30.763Z,21.64
2016-09-02T01:56:40.923Z,21.58
2016-09-02T01:57:53.190Z,21.55
2016-09-02T01:59:04.051Z,21.61
2016-09-02T02:00:15.619Z,21.58
2016-09-02T02:01:26.485Z,21.62
2016-09-02T02:02:38.753Z,21.64
2016-09-02T02:03:50.293Z,21.55
2016-09-02T02:05:01.859Z,21.64
2016-09-02T02:06:12.017Z,21.67
2016-09-02T02:07:23.579Z,21.66
2016-09-02T02:08:35.139Z,21.61
2016-09-02T02:09:47.413Z,21.61
2016-09-02T02:10:57.579Z,21.61
2016-09-02T02:12:09.128Z,21.59
2016-09-02T02:13:20.677Z,21.56
2016-09-02T02:14:32.944Z,21.51
2016-09-02T02:15:44.506Z,21.52
2016-09-02T02:16:55.372Z,21.49
2016-09-02T02:18:07.635Z,21.52
2016-09-02T02:19:19.893Z,21.51
2016-09-02T02:20:32.162Z,21.55
2016-09-02T02:21:44.421Z,21.48
2016-09-02T02:22:55.986Z,21.53
2016-09-02T02:24:07.538Z,21.48
2016-09-02T02:25:18.406Z,21.49
2016-09-02T02:26:29.977Z,21.4
2016-09-02T02:27:41.532Z,21.37
2016-09-02T02:28:53.097Z,21.4
2016-09-02T02:30:05.353Z,21.37
2016-09-02T02:31:16.240Z,21.36
2016-09-02T02:32:27.801Z,21.33
2016-09-02T02:33:40.050Z,21.34
2016-09-02T02:34:51.605Z,21.31
2016-09-02T02:36:03.175Z,21.36
2016-09-02T02:37:15.444Z,21.3
2016-09-02T02:38:27.696Z,21.28
2016-09-02T02:39:37.849Z,21.27
2016-09-02T02:40:49.404Z,21.28
2016-09-02T02:42:01.666Z,21.36
2016-09-02T02:43:13.928Z,21.41
2016-09-02T02:44:25.488Z,21.43
2016-09-02T02:45:37.046Z,21.4
2016-09-02T02:46:48.603Z,21.41
2016-09-02T02:48:00.169Z,21.45
2016-09-02T02:49:12.433Z,21.37
2016-09-02T02:50:24.702Z,21.34
2016-09-02T02:51:35.543Z,21.31
2016-09-02T02:52:47.105Z,21.33
2016-09-02T02:53:59.367Z,21.27
2016-09-02T02:55:11.625Z,21.27
2016-09-02T02:56:23.884Z,21.34
2016-09-02T02:57:34.740Z,21.21
2016-09-02T02:58:46.999Z,21.23
2016-09-02T02:59:58.562Z,21.18
2016-09-02T03:32:09.243Z,17.92
2016-09-02T03:33:20.791Z,17.79
2016-09-02T03:34:31.641Z,17.76
2016-09-02T03:35:44.405Z,17.77
2016-09-02T03:36:55.276Z,17.84
2016-09-02T03:38:06.829Z,17.87
2016-09-02T03:39:19.081Z,18.01
2016-09-02T03:40:31.342Z,18.17
2016-09-02T03:41:42.914Z,18.24
2016-09-02T03:42:54.476Z,18.29
2016-09-02T03:44:06.039Z,18.47
2016-09-02T03:45:17.601Z,18.57
2016-09-02T03:46:29.187Z,18.78
2016-09-02T03:47:40.744Z,18.89
2016-09-02T03:48:53.009Z,18.96
2016-09-02T03:50:05.281Z,19.1
2016-09-02T03:51:16.668Z,19.16
2016-09-02T03:52:27.530Z,19.24
2016-09-02T03:53:39.091Z,19.35
2016-09-02T03:54:51.369Z,19.45
2016-09-02T03:56:02.924Z,19.55
2016-09-02T03:57:14.482Z,19.63
2016-09-02T03:58:25.333Z,19.65
2016-09-02T03:59:36.888Z,19.67
2016-09-02T04:00:49.148Z,19.78
2016-09-02T04:01:59.328Z,19.87
2016-09-02T04:03:10.889Z,19.9
2016-09-02T04:04:23.157Z,19.93
2016-09-02T04:05:35.425Z,20
2016-09-02T04:06:47.688Z,20.05
2016-09-02T04:07:59.238Z,20.05
2016-09-02T04:09:10.795Z,20.04
2016-09-02T04:10:22.366Z,20.18
2016-09-02T04:11:34.626Z,20.25
2016-09-02T04:12:46.889Z,20.25
2016-09-02T04:13:58.443Z,20.3
2016-09-02T04:15:11.015Z,20.34
2016-09-02T04:16:23.274Z,20.35
2016-09-02T04:17:35.550Z,20.48
2016-09-02T04:18:47.820Z,20.48
2016-09-02T04:19:59.390Z,20.48
2016-09-02T04:21:11.651Z,20.54
2016-09-02T04:22:23.215Z,20.57
2016-09-02T04:23:35.490Z,20.75
2016-09-02T04:24:46.369Z,20.75
2016-09-02T04:25:57.922Z,20.76
2016-09-02T04:27:10.181Z,20.78
2016-09-02T04:28:21.746Z,20.94
2016-09-02T04:29:34.026Z,20.97
2016-09-02T04:30:46.300Z,21.09
2016-09-02T04:31:57.898Z,21.19
2016-09-02T04:33:10.147Z,21.21
2016-09-02T04:34:22.426Z,21.34
2016-09-02T04:35:34.703Z,21.48
2016-09-02T04:36:46.470Z,21.49
2016-09-02T04:37:58.722Z,21.49
2016-09-02T04:39:09.570Z,21.46
2016-09-02T04:40:21.831Z,21.56
2016-09-02T04:41:33.413Z,21.53
2016-09-02T04:42:44.969Z,21.66
2016-09-02T04:43:57.225Z,21.82
2016-09-02T04:45:08.792Z,22.07
2016-09-02T04:46:21.055Z,22.24
2016-09-02T04:47:31.898Z,22.33
2016-09-02T04:48:44.154Z,22.51
2016-09-02T04:49:55.715Z,22.64
2016-09-02T04:51:08.001Z,22.78
2016-09-02T04:52:20.268Z,22.91
2016-09-02T04:53:31.838Z,22.91
2016-09-02T04:54:44.102Z,23.07
2016-09-02T04:55:56.369Z,23.03
2016-09-02T04:57:07.949Z,22.86
2016-09-02T04:58:19.744Z,22.76
2016-09-02T04:59:31.336Z,22.75
2016-09-02T05:00:42.893Z,22.61
2016-09-02T05:01:54.448Z,22.69
2016-09-02T05:03:06.012Z,22.59
2016-09-02T05:04:18.272Z,22.6
2016-09-02T05:05:29.148Z,22.54
2016-09-02T05:06:41.416Z,22.59
2016-09-02T05:07:53.667Z,22.54
2016-09-02T05:09:05.934Z,22.54
2016-09-02T05:10:17.481Z,22.54
2016-09-02T05:11:29.737Z,22.55
2016-09-02T05:12:41.313Z,22.64
2016-09-02T05:13:52.869Z,22.67
2016-09-02T05:15:04.423Z,22.7
2016-09-02T05:16:16.689Z,22.85
2016-09-02T05:17:28.261Z,22.85
2016-09-02T05:18:39.822Z,22.89
2016-09-02T05:19:52.079Z,22.88
2016-09-02T05:21:04.355Z,23.24
2016-09-02T05:22:15.901Z,23.56
2016-09-02T05:23:26.755Z,23.59
2016-09-02T05:24:39.009Z,23.6
2016-09-02T05:25:49.868Z,23.6
2016-09-02T05:27:02.130Z,23.59
2016-09-02T05:28:13.699Z,23.63
2016-09-02T05:29:25.256Z,23.74
2016-09-02T05:30:37.511Z,23.79
2016-09-02T05:31:49.070Z,23.93
2016-09-02T05:33:00.635Z,24.03
2016-09-02T05:34:12.193Z,24.4
2016-09-02T05:35:23.752Z,24.71
2016-09-02T05:36:37.671Z,25.12
2016-09-02T05:37:49.935Z,25.34
2016-09-02T05:39:01.742Z,25.34
2016-09-02T05:40:14.009Z,25.15
2016-09-02T05:41:25.572Z,25.05
2016-09-02T05:42:37.859Z,25.01
2016-09-02T05:43:49.439Z,24.89
2016-09-02T05:45:00.346Z,25.01
2016-09-02T05:46:12.428Z,25.14
2016-09-02T05:47:23.976Z,25.38
2016-09-02T05:48:34.837Z,25.69
2016-09-02T05:49:47.097Z,25.76
2016-09-02T05:50:58.655Z,25.59
2016-09-02T05:52:10.220Z,25.6
2016-09-02T05:53:22.486Z,25.56
2016-09-02T05:54:34.751Z,25.49
2016-09-02T05:55:45.628Z,25.59
2016-09-02T05:56:56.494Z,25.6
2016-09-02T05:58:08.075Z,25.79
2016-09-02T05:59:19.017Z,25.7
2016-09-02T06:00:30.578Z,25.62
2016-09-02T06:01:42.848Z,25.64
2016-09-02T06:02:53.718Z,25.66
2016-09-02T06:04:04.609Z,25.64
2016-09-02T06:05:16.192Z,25.76
2016-09-02T06:06:29.057Z,25.75
2016-09-02T06:07:41.346Z,25.82
2016-09-02T06:08:52.217Z,25.74
2016-09-02T06:10:03.803Z,25.78
2016-09-02T06:11:14.885Z,25.88
2016-09-02T06:12:27.159Z,25.78
2016-09-02T06:13:38.018Z,25.93
2016-09-02T06:14:49.570Z,25.96
2016-09-02T06:16:01.823Z,26.04
2016-09-02T06:17:13.386Z,26.09
2016-09-02T06:18:24.269Z,26.09
2016-09-02T06:19:35.838Z,26.16
2016-09-02T06:20:47.414Z,26.19
2016-09-02T06:21:58.986Z,26.23
2016-09-02T06:23:10.573Z,26.24
2016-09-02T06:24:22.853Z,26.24
2016-09-02T06:25:34.415Z,26.26
2016-09-02T06:26:46.691Z,26.26
2016-09-02T06:27:58.966Z,26.31
2016-09-02T06:29:10.549Z,26.39
2016-09-02T06:30:22.109Z,26.3
2016-09-02T06:31:32.965Z,26.42
2016-09-02T06:32:43.832Z,26.41
2016-09-02T06:33:56.098Z,26.47
2016-09-02T06:35:07.945Z,26.47
2016-09-02T06:36:18.802Z,26.44
2016-09-02T06:37:30.368Z,26.47
2016-09-02T06:38:41.933Z,26.53
2016-09-02T06:39:54.198Z,26.53
2016-09-02T06:41:06.466Z,26.56
2016-09-02T06:42:18.047Z,26.59
2016-09-02T06:43:28.926Z,26.68
2016-09-02T06:44:39.784Z,26.72
2016-09-02T06:45:51.371Z,26.96
2016-09-02T06:47:03.653Z,27
2016-09-02T06:48:15.938Z,27.05
2016-09-02T06:49:27.506Z,27.09
2016-09-02T06:50:39.784Z,27.21
2016-09-02T06:51:50.641Z,27.31
2016-09-02T06:53:01.517Z,27.46
2016-09-02T06:54:12.393Z,27.66
2016-09-02T06:55:23.961Z,27.89
2016-09-02T06:56:34.824Z,28.02
2016-09-02T06:57:44.989Z,28.09
2016-09-02T06:58:55.152Z,28.24
2016-09-02T07:00:05.543Z,28.45
2016-09-02T07:01:17.142Z,28.65
2016-09-02T07:02:29.420Z,28.83
2016-09-02T07:03:40.992Z,29.02
2016-09-02T07:04:53.260Z,29.23
2016-09-02T07:06:04.123Z,29.39
2016-09-02T07:07:15.708Z,29.45
2016-09-02T07:08:27.364Z,29.6
2016-09-02T07:09:38.227Z,29.6
2016-09-02T07:10:49.782Z,29.7
2016-09-02T07:12:01.345Z,29.75
2016-09-02T07:13:12.914Z,29.69
2016-09-02T07:14:25.193Z,29.65
2016-09-02T07:15:35.356Z,29.6
2016-09-02T07:16:46.231Z,29.52
2016-09-02T07:17:58.508Z,29.5
2016-09-02T07:19:10.080Z,29.57
2016-09-02T07:20:21.635Z,29.65
2016-09-02T07:21:33.228Z,29.76
2016-09-02T07:22:45.527Z,29.75
2016-09-02T07:23:57.802Z,29.58
2016-09-02T07:25:09.396Z,29.61
2016-09-02T07:26:20.270Z,29.57
2016-09-02T07:27:32.527Z,29.51
2016-09-02T07:28:44.100Z,29.52
2016-09-02T07:29:56.384Z,29.45
2016-09-02T07:31:07.239Z,29.42
2016-09-02T07:32:18.109Z,29.32
2016-09-02T07:33:28.991Z,29.14
2016-09-02T07:34:39.866Z,29.08
2016-09-02T07:35:52.136Z,28.95
2016-09-02T07:37:03.702Z,28.8
2016-09-02T07:38:14.573Z,28.86
2016-09-02T07:39:26.149Z,28.85
2016-09-02T07:40:38.419Z,28.82
2016-09-02T07:41:49.284Z,28.75
2016-09-02T07:43:00.146Z,28.75
2016-09-02T07:44:11.712Z,28.67
2016-09-02T07:45:21.178Z,28.55
2016-09-02T07:46:32.757Z,28.49
2016-09-02T07:47:45.047Z,28.43
2016-09-02T07:48:57.327Z,28.35
2016-09-02T07:50:08.901Z,28.28
2016-09-02T07:51:20.738Z,28.14
2016-09-02T07:52:33.009Z,28.03
2016-09-02T07:53:45.292Z,27.89
2016-09-02T07:54:57.543Z,27.75
2016-09-02T07:56:08.428Z,27.62
2016-09-02T07:57:19.307Z,27.51
2016-09-02T07:58:31.571Z,27.36
2016-09-02T07:59:43.130Z,27.26
2016-09-02T08:00:54.007Z,27.15
2016-09-02T08:02:04.869Z,27.11
2016-09-02T08:03:16.429Z,27.12
2016-09-02T08:04:28.701Z,27.06
2016-09-02T08:05:40.274Z,27.08
2016-09-02T08:06:51.850Z,27.05
2016-09-02T08:08:04.121Z,27.05
2016-09-02T08:09:14.982Z,27.01
2016-09-02T08:10:26.539Z,27
2016-09-02T08:11:37.473Z,27
2016-09-02T08:12:49.041Z,27.08
2016-09-02T08:14:01.301Z,27.09
2016-09-02T08:15:12.879Z,27.08
2016-09-02T08:16:24.461Z,27.09
2016-09-02T08:17:36.051Z,27.16
2016-09-02T08:18:46.223Z,27.19
2016-09-02T08:19:57.795Z,27.28
2016-09-02T08:21:09.382Z,27.41
2016-09-02T08:22:20.982Z,27.49
2016-09-02T08:23:31.839Z,27.51
2016-09-02T08:24:42.007Z,27.57
2016-09-02T08:25:52.885Z,27.53
2016-09-02T08:27:04.445Z,27.62
2016-09-02T08:28:15.318Z,27.76
2016-09-02T08:29:26.876Z,27.87
2016-09-02T08:30:37.037Z,27.86
2016-09-02T08:31:48.617Z,28.03
2016-09-02T08:33:00.180Z,28.08
2016-09-02T08:34:11.776Z,28.23
2016-09-02T08:35:24.188Z,28.28
2016-09-02T08:36:35.754Z,28.3
2016-09-02T08:37:47.365Z,28.31
2016-09-02T08:38:58.934Z,28.45
2016-09-02T08:40:09.797Z,28.45
2016-09-02T08:41:20.707Z,28.58
2016-09-02T08:42:32.274Z,28.6
2016-09-02T08:43:43.151Z,28.64
2016-09-02T08:44:54.732Z,28.68
2016-09-02T08:46:05.589Z,28.7
2016-09-02T08:47:17.143Z,28.65
2016-09-02T08:48:29.418Z,28.72
2016-09-02T08:49:41.720Z,28.68
2016-09-02T08:50:53.287Z,28.73
2016-09-02T08:52:04.863Z,28.7
2016-09-02T08:53:16.461Z,28.67
2016-09-02T08:54:28.052Z,28.67
2016-09-02T08:55:39.614Z,28.64
2016-09-02T08:56:51.872Z,28.55
2016-09-02T08:58:02.738Z,28.42
2016-09-02T08:59:15.114Z,28.45
2016-09-02T09:00:26.681Z,28.33
2016-09-02T09:01:38.954Z,28.23
2016-09-02T09:02:49.119Z,28.35
2016-09-02T09:04:00.686Z,28.45
2016-09-02T09:05:13.068Z,28.85
2016-09-02T09:06:23.931Z,28.82
2016-09-02T09:07:36.192Z,28.88
2016-09-02T09:08:46.353Z,28.86
2016-09-02T09:09:57.920Z,28.82
2016-09-02T09:11:09.482Z,28.86
2016-09-02T09:12:21.753Z,29.01
2016-09-02T09:13:32.635Z,29.24
2016-09-02T09:14:44.197Z,29.45
2016-09-02T09:15:56.468Z,29.43
2016-09-02T09:17:07.372Z,29.63
2016-09-02T09:18:18.957Z,29.6
2016-09-02T09:19:31.234Z,29.7
2016-09-02T09:20:42.089Z,29.72
2016-09-02T09:21:53.695Z,29.77
2016-09-02T09:23:03.874Z,29.81
2016-09-02T09:24:16.149Z,29.77
2016-09-02T09:25:27.712Z,29.94
2016-09-02T09:26:38.603Z,29.95
2016-09-02T09:27:49.472Z,30.04
2016-09-02T09:29:01.030Z,30.13
2016-09-02T09:30:13.331Z,30.24
2016-09-02T09:31:24.230Z,30.28
2016-09-02T09:32:35.833Z,30.51
2016-09-02T09:33:46.691Z,30.57
2016-09-02T09:34:57.562Z,30.67
2016-09-02T09:36:09.143Z,30.78
2016-09-02T09:37:20.720Z,30.84
2016-09-02T09:38:32.290Z,30.94
2016-09-02T09:39:43.873Z,31.04
2016-09-02T09:40:54.756Z,31.06
2016-09-02T09:42:06.337Z,31.06
2016-09-02T09:43:18.629Z,31.12
2016-09-02T09:44:28.782Z,31.22
2016-09-02T09:45:41.063Z,31.23
2016-09-02T09:46:51.953Z,31.31
2016-09-02T09:48:04.206Z,31.36
2016-09-02T09:49:16.498Z,31.3
2016-09-02T09:50:27.360Z,31.49
2016-09-02T09:51:37.526Z,31.41
2016-09-02T09:52:49.101Z,31.45
2016-09-02T09:53:58.567Z,31.53
2016-09-02T09:55:11.048Z,31.58
2016-09-02T09:56:22.628Z,31.72
2016-09-02T09:57:33.495Z,31.78
2016-09-02T09:58:45.771Z,31.8
2016-09-02T09:59:56.640Z,31.93
2016-09-02T10:01:06.801Z,31.93
2016-09-02T10:02:19.079Z,31.93
2016-09-02T10:03:30.659Z,32.01
2016-09-02T10:04:41.506Z,31.94
2016-09-02T10:05:52.377Z,32.05
2016-09-02T10:07:03.251Z,32.08
2016-09-02T10:08:14.812Z,32.06
2016-09-02T10:09:26.377Z,32.06
2016-09-02T10:10:37.245Z,32.13
2016-09-02T10:11:48.131Z,32.28
2016-09-02T10:12:59.713Z,32.35
2016-09-02T10:14:11.980Z,32.38
2016-09-02T10:15:23.544Z,32.37
2016-09-02T10:16:34.725Z,32.35
2016-09-02T10:17:46.991Z,32.43
2016-09-02T10:18:59.268Z,32.54
2016-09-02T10:20:11.559Z,32.56
2016-09-02T10:21:23.131Z,32.5
2016-09-02T10:22:34.004Z,32.57
2016-09-02T10:23:46.301Z,32.68
2016-09-02T10:24:57.873Z,32.75
2016-09-02T10:26:10.161Z,32.72
2016-09-02T10:27:22.433Z,32.71
2016-09-02T10:28:34.716Z,32.84
2016-09-02T10:29:46.300Z,32.84
2016-09-02T10:30:58.580Z,32.84
2016-09-02T10:32:09.483Z,32.86
2016-09-02T10:33:20.354Z,32.98
2016-09-02T10:34:31.231Z,33.02
2016-09-02T10:35:42.098Z,33.16
2016-09-02T10:36:53.689Z,33.2
2016-09-02T10:38:04.557Z,33.18
2016-09-02T10:39:15.421Z,33.13
2016-09-02T10:40:27.007Z,33.21
2016-09-02T10:41:37.911Z,33.24
2016-09-02T10:42:48.773Z,33.23
2016-09-02T10:44:00.350Z,33.29
2016-09-02T10:45:11.917Z,33.26
2016-09-02T10:46:22.782Z,33.31
2016-09-02T10:47:33.680Z,33.29
2016-09-02T10:48:44.562Z,33.37
2016-09-02T10:49:56.838Z,33.43
2016-09-02T10:51:08.415Z,33.41
2016-09-02T10:52:20.001Z,33.5
2016-09-02T10:53:32.293Z,33.53
2016-09-02T10:54:43.155Z,33.56
2016-09-02T10:55:55.504Z,33.55
2016-09-02T10:57:07.114Z,33.63
2016-09-02T10:58:18.684Z,33.59
2016-09-02T10:59:29.567Z,33.56
2016-09-02T11:00:41.842Z,33.63
2016-09-02T11:01:52.705Z,33.62
2016-09-02T11:03:03.568Z,33.61
2016-09-02T11:04:15.167Z,33.68
2016-09-02T11:05:26.756Z,33.73
2016-09-02T11:06:38.340Z,33.84
2016-09-02T11:07:50.608Z,33.84
2016-09-02T11:09:01.499Z,33.84
2016-09-02T11:10:12.358Z,33.85
2016-09-02T11:11:24.623Z,33.92
2016-09-02T11:12:36.903Z,33.92
2016-09-02T11:13:49.184Z,33.99
2016-09-02T11:15:02.183Z,34.02
2016-09-02T11:16:14.470Z,34.17
2016-09-02T11:17:26.029Z,34.18
2016-09-02T11:18:37.616Z,34.24
2016-09-02T11:19:48.502Z,34.24
2016-09-02T11:21:00.071Z,34.15
2016-09-02T11:22:12.333Z,34.24
2016-09-02T11:23:23.213Z,34.15
2016-09-02T11:24:34.788Z,34.29
2016-09-02T11:25:47.056Z,34.36
2016-09-02T11:26:57.935Z,34.45
2016-09-02T11:28:10.215Z,34.45
2016-09-02T11:29:22.507Z,34.58
2016-09-02T11:30:34.070Z,34.64
2016-09-02T11:31:45.655Z,34.72
2016-09-02T11:32:57.936Z,34.81
2016-09-02T11:34:10.220Z,34.97
2016-09-02T11:35:21.146Z,35.06
2016-09-02T11:36:33.413Z,35.09
2016-09-02T11:37:44.278Z,35.18
2016-09-02T11:38:56.587Z,35.18
2016-09-02T11:40:08.163Z,35.23
2016-09-02T11:41:19.751Z,35.33
2016-09-02T11:42:30.630Z,35.28
2016-09-02T11:43:41.512Z,35.38
2016-09-02T11:44:53.080Z,35.4
2016-09-02T11:46:04.659Z,35.46
2016-09-02T11:47:16.943Z,35.4
2016-09-02T11:48:27.111Z,35.2
2016-09-02T11:49:38.690Z,35.05
2016-09-02T11:50:49.558Z,35.04
2016-09-02T11:52:01.856Z,34.94
2016-09-02T11:53:14.133Z,34.91
2016-09-02T11:54:25.712Z,34.96
2016-09-02T11:55:36.586Z,34.96
2016-09-02T11:56:48.154Z,34.89
2016-09-02T11:58:00.460Z,34.81
2016-09-02T11:59:12.051Z,34.79
2016-09-02T12:00:23.629Z,34.84
2016-09-02T12:01:35.205Z,34.86
2016-09-02T12:02:47.487Z,34.72
2016-09-02T12:03:58.352Z,34.52
2016-09-02T12:05:10.020Z,34.27
2016-09-02T12:06:20.893Z,34.03
2016-09-02T12:07:31.768Z,34.17
2016-09-02T12:08:43.339Z,34.34
2016-09-02T12:09:54.917Z,34.36
2016-09-02T12:11:05.785Z,34.45
2016-09-02T12:12:17.366Z,34.58
2016-09-02T12:13:27.538Z,34.69
2016-09-02T12:14:39.818Z,34.49
2016-09-02T12:15:52.101Z,34.17
2016-09-02T12:17:04.377Z,34.43
2016-09-02T12:18:14.549Z,34.15
2016-09-02T12:19:26.115Z,34.14
2016-09-02T12:20:36.284Z,33.99
2016-09-02T12:21:48.550Z,34.1
2016-09-02T12:23:00.165Z,34.39
2016-09-02T12:24:12.511Z,34.66
2016-09-02T12:25:24.094Z,34.81
2016-09-02T12:26:36.370Z,34.71
2016-09-02T12:27:47.233Z,34.49
2016-09-02T12:28:59.519Z,34.4
2016-09-02T12:30:10.390Z,34.22
2016-09-02T12:31:20.558Z,34.08
2016-09-02T12:32:32.136Z,34.19
2016-09-02T12:33:42.335Z,34.39
2016-09-02T12:34:53.899Z,34.52
2016-09-02T12:36:05.465Z,34.72
2016-09-02T12:37:17.073Z,34.84
2016-09-02T12:38:28.656Z,34.69
2016-09-02T12:39:39.527Z,34.78
2016-09-02T12:40:51.091Z,34.67
2016-09-02T12:42:02.669Z,34.75
2016-09-02T12:43:14.240Z,35.02
2016-09-02T12:44:25.842Z,35.18
2016-09-02T12:45:37.651Z,35.33
2016-09-02T12:46:49.227Z,35.47
2016-09-02T12:48:00.815Z,35.47
2016-09-02T12:49:12.417Z,35.67
2016-09-02T12:50:24.697Z,35.71
2016-09-02T12:51:35.580Z,35.8
2016-09-02T12:52:47.875Z,35.96
2016-09-02T12:53:59.438Z,36.12
2016-09-02T12:55:09.921Z,36.32
2016-09-02T12:56:21.480Z,36.41
2016-09-02T12:57:33.051Z,36.4
2016-09-02T12:58:45.336Z,36.61
2016-09-02T12:59:57.654Z,36.62
2016-09-02T13:01:08.513Z,36.63
2016-09-02T13:02:18.702Z,36.75
2016-09-02T13:03:29.589Z,36.83
2016-09-02T13:04:41.165Z,36.9
2016-09-02T13:05:52.749Z,36.99
2016-09-02T13:07:02.929Z,37.07
2016-09-02T13:08:15.202Z,37.05
2016-09-02T13:09:26.787Z,36.73
2016-09-02T13:10:38.352Z,36.55
2016-09-02T13:11:49.933Z,36.3
2016-09-02T13:13:01.523Z,36.05
2016-09-02T13:14:12.406Z,35.87
2016-09-02T13:15:24.911Z,35.53
2016-09-02T13:16:36.502Z,35.35
2016-09-02T13:17:48.066Z,35.13
2016-09-02T13:19:00.352Z,34.93
2016-09-02T13:20:12.814Z,34.64
2016-09-02T13:21:24.373Z,34.41
2016-09-02T13:22:36.653Z,34.1
2016-09-02T13:23:48.930Z,33.89
2016-09-02T13:25:00.504Z,33.62
2016-09-02T13:26:11.380Z,33.37
2016-09-02T13:27:23.651Z,33.2
2016-09-02T13:28:35.232Z,32.98
2016-09-02T13:29:45.401Z,32.67
2016-09-02T13:30:57.695Z,32.46
2016-09-02T13:32:09.258Z,32.35
2016-09-02T13:33:20.838Z,32.23
2016-09-02T13:34:31.710Z,32.05
2016-09-02T13:35:42.613Z,31.88
2016-09-02T13:36:54.889Z,31.78
2016-09-02T13:38:07.167Z,31.6
2016-09-02T13:39:18.044Z,31.47
2016-09-02T13:40:29.611Z,31.38
2016-09-02T13:41:40.468Z,31.21
2016-09-02T13:42:50.643Z,31.04
2016-09-02T13:44:01.522Z,30.84
2016-09-02T13:45:13.858Z,30.6
2016-09-02T13:46:26.112Z,30.29
2016-09-02T13:47:38.386Z,30
2016-09-02T13:48:49.974Z,29.57
2016-09-02T13:50:02.270Z,29.35
2016-09-02T13:51:13.850Z,28.88
2016-09-02T13:52:26.144Z,28.8
2016-09-02T13:53:35.595Z,28.48
2016-09-02T13:54:47.192Z,28.27
2016-09-02T13:55:59.002Z,28.16
2016-09-02T13:57:10.587Z,27.93
2016-09-02T13:58:21.433Z,27.86
2016-09-02T13:59:32.994Z,27.68
2016-09-02T14:00:44.562Z,27.59
2016-09-02T14:01:56.823Z,27.42
2016-09-02T14:03:08.408Z,27.3
2016-09-02T14:04:21.478Z,27.11
2016-09-02T14:05:32.353Z,27.01
2016-09-02T14:06:42.539Z,26.99
2016-09-02T14:07:54.123Z,26.87
2016-09-02T14:09:06.406Z,26.76
2016-09-02T14:10:17.340Z,26.75
2016-09-02T14:11:29.603Z,26.69
2016-09-02T14:12:40.467Z,26.69
2016-09-02T14:13:52.739Z,26.68
2016-09-02T14:15:04.927Z,26.68
2016-09-02T14:16:15.089Z,26.63
2016-09-02T14:17:26.659Z,26.63
2016-09-02T14:18:38.931Z,26.57
2016-09-02T14:19:50.504Z,26.57
2016-09-02T14:21:02.797Z,26.64
2016-09-02T14:22:14.357Z,26.57
2016-09-02T14:23:25.225Z,26.59
2016-09-02T14:24:36.801Z,26.63
2016-09-02T14:25:46.951Z,26.67
2016-09-02T14:26:58.054Z,26.56
2016-09-02T14:28:08.915Z,26.69
2016-09-02T14:29:21.198Z,26.81
2016-09-02T14:30:32.070Z,26.82
2016-09-02T14:31:42.951Z,26.89
2016-09-02T14:32:55.219Z,27
2016-09-02T14:34:06.116Z,26.94
2016-09-02T14:35:18.492Z,26.99
2016-09-02T14:36:30.527Z,26.94
2016-09-02T14:37:42.800Z,26.97
2016-09-02T14:38:54.371Z,26.89
2016-09-02T14:40:05.380Z,26.86
2016-09-02T14:41:16.267Z,26.96
2016-09-02T14:42:27.832Z,26.96
2016-09-02T14:43:38.711Z,26.9
2016-09-02T14:44:50.266Z,26.94
2016-09-02T14:46:01.827Z,26.99
2016-09-02T14:47:12.704Z,26.96
2016-09-02T14:48:24.970Z,26.93
2016-09-02T14:49:35.132Z,27.01
2016-09-02T14:50:46.704Z,27
2016-09-02T14:51:58.330Z,27.11
2016-09-02T14:53:09.199Z,27.12
2016-09-02T14:54:20.769Z,27.24
2016-09-02T14:55:32.341Z,27.26
2016-09-02T14:56:43.222Z,27.33
2016-09-02T14:57:54.808Z,27.34
2016-09-02T14:59:06.366Z,27.36
2016-09-02T15:00:18.645Z,27.42
2016-09-02T15:01:30.231Z,27.46
2016-09-02T15:02:41.805Z,27.57
2016-09-02T15:03:51.974Z,27.52
2016-09-02T15:05:02.842Z,27.46
2016-09-02T15:06:15.107Z,27.64
2016-09-02T15:07:25.979Z,27.69
2016-09-02T15:08:37.550Z,27.69
2016-09-02T15:09:49.123Z,27.89
2016-09-02T15:10:59.989Z,27.91
2016-09-02T15:12:10.877Z,28.01
2016-09-02T15:13:23.158Z,28.16
2016-09-02T15:14:34.748Z,28.12
2016-09-02T15:15:47.028Z,28.26
2016-09-02T15:16:58.614Z,28.31
2016-09-02T15:18:10.175Z,28.36
2016-09-02T15:19:21.047Z,28.41
2016-09-02T15:20:32.613Z,28.53
2016-09-02T15:21:43.474Z,28.55
2016-09-02T15:22:55.058Z,28.61
2016-09-02T15:24:07.348Z,28.64
2016-09-02T15:25:18.206Z,28.67
2016-09-02T15:26:31.023Z,28.73
2016-09-02T15:27:43.314Z,28.73
2016-09-02T15:28:54.882Z,28.7
2016-09-02T15:30:07.149Z,28.55
2016-09-02T15:31:18.052Z,28.51
2016-09-02T15:32:29.617Z,28.45
2016-09-02T15:33:41.183Z,28.46
2016-09-02T15:34:52.756Z,28.41
2016-09-02T15:36:04.347Z,28.35
2016-09-02T15:37:15.926Z,28.27
2016-09-02T15:38:28.189Z,28.23
2016-09-02T15:39:39.767Z,28.08
2016-09-02T15:40:51.359Z,27.99
2016-09-02T15:42:02.946Z,27.84
2016-09-02T15:43:14.537Z,27.89
2016-09-02T15:44:26.799Z,27.89
2016-09-02T15:45:38.376Z,28.06
2016-09-02T15:46:49.248Z,28.14
2016-09-02T15:48:01.060Z,28.14
2016-09-02T15:49:13.352Z,28.3
2016-09-02T15:50:25.847Z,28.26
2016-09-02T15:51:37.418Z,28.21
2016-09-02T15:52:49.017Z,28.28
2016-09-02T15:54:00.600Z,28.33
2016-09-02T15:55:11.467Z,28.27
2016-09-02T15:56:23.036Z,28.26